• Join FlightAware (Why Join?)
  • Login
  • US Flag 
09:07AM EDT


 

Airport Tracker/Info


-or-


 

Live Flight TrackerFlight Track Log ✈ UPS2948 ✈ 22-Apr-2013 ✈ KSDF - KOAK

Flight Track Log - Related Links

Times and Time Zones

All times are in EDT time to prevent confusion due to time zone crossing. See the UPS2948 flight status page for this flight to view local times or setup timezone preferences in your user account.

Time Position Orientation Groundspeed Altitude Reporting Facility
EDT Latitude Longitude Course Direction KTS MPH feet Rate Location/Type
04:21PM 38.1700 -85.7430 142° Southeast 161 185 300  Level FlightAware
04:21PM 38.1500 -85.7370 167° South 162 186 1,600 2,280 Climbing FlightAware
04:22PM 38.1240 -85.7350 177° South 204 235 2,400 1,800 Climbing FlightAware
04:22PM 38.0950 -85.7360 182° South 222 255 3,400 1,920 Climbing FlightAware
04:23PM 38.0850 -85.7410 201° Southwest 228 262 3,700 1,920 Climbing FlightAware
04:23PM 38.0750 -85.7560 230° Southwest 240 276 4,200 1,920 Climbing FlightAware
04:23PM 38.0730 -85.7690 259° West 247 284 4,500 2,100 Climbing FlightAware
04:24PM 38.0770 -85.8230 275° West 264 304 5,800 2,280 Climbing FlightAware
04:24PM 38.0770 -85.8610 270° West 267 307 6,800 2,040 Climbing FlightAware
04:24PM 38.0750 -85.9100 267° West 282 325 7,700 960 Climbing FlightAware
04:25PM 38.0730 -85.9530 267° West 277 319 7,700 960 Level FlightAware
04:25PM 38.0690 -85.9990 264° West 278 320 8,600 2,040 Climbing FlightAware
04:26PM 38.0660 -86.0390 265° West 285 328 9,600 1,920 Climbing FlightAware
04:27PM 38.0620 -86.1200 266° West 316 364 10,900 1,860 Climbing FlightAware
04:27PM 38.0570 -86.1980 265° West 336 387 12,300 2,220 Climbing FlightAware
04:28PM 38.0520 -86.2820 266° West 343 395 14,100 2,460 Climbing FlightAware
04:29PM 38.0460 -86.3670 265° West 351 404 15,800 2,400 Climbing FlightAware
04:29PM 38.0400 -86.4360 264° West 357 411 17,100 2,220 Climbing FlightAware
04:30PM 38.0330 -86.5330 265° West 364 419 18,800 2,100 Climbing FlightAware
04:31PM 38.0260 -86.6210 264° West 372 428 20,100 1,800 Climbing FlightAware
04:31PM 38.0170 -86.7300 264° West 386 444 21,500 1,740 Climbing FlightAware
04:32PM 38.0090 -86.8340 264° West 391 450 22,900 1,800 Climbing FlightAware
04:33PM 38.0170 -86.9160 277° West 395 455 23,900 1,680 Climbing FlightAware
04:34PM 38.0360 -87.0170 283° West 398 458 25,200 1,680 Climbing FlightAware
04:34PM 38.0560 -87.1190 284° West 401 461 26,500 1,620 Climbing FlightAware
04:35PM 38.0740 -87.2140 284° West 405 466 27,500 1,380 Climbing FlightAware
04:36PM 38.0910 -87.3070 283° West 410 472 28,400 1,320 Climbing FlightAware
04:36PM 38.1100 -87.4110 283° West 415 478 29,400 1,440 Climbing FlightAware
04:37PM 38.1280 -87.5080 283° West 417 480 30,500 1,500 Climbing FlightAware
04:38PM 38.1480 -87.6140 284° West 418 481 31,600 960 Climbing FlightAware
04:38PM 38.1650 -87.7100 283° West 421 484 31,900 240 Climbing FlightAware
04:39PM 38.1860 -87.8220 283° West 430 495 32,000 60 Climbing FlightAware
04:40PM 38.2040 -87.9220 283° West 433 498 32,000  Level FlightAware
04:41PM 38.2240 -88.0350 283° West 430 495 32,000  Level FlightAware
04:41PM 38.2410 -88.1300 283° West 428 493 32,000  Level FlightAware
04:42PM 38.2590 -88.2310 283° West 427 491 32,000  Level FlightAware
04:43PM 38.2790 -88.3390 283° West 426 490 32,000  Level FlightAware
04:43PM 38.2960 -88.4370 282° West 424 488 32,000  Level FlightAware
04:44PM 38.3130 -88.5340 283° West 423 487 32,000  Level FlightAware
04:45PM 38.3320 -88.6430 283° West 422 486 32,000  Level FlightAware
04:45PM 38.3490 -88.7400 283° West 422 486 32,000  Level FlightAware
04:46PM 38.3680 -88.8500 282° West 421 484 32,000  Level FlightAware
04:47PM 38.3850 -88.9480 283° West 420 483 32,000  Level FlightAware
04:48PM 38.4040 -89.0580 282° West 420 483 32,000  Level FlightAware
04:48PM 38.4200 -89.1480 283° West 419 482 32,000  Level FlightAware
04:49PM 38.4500 -89.2450 292° West 420 483 32,000  Level FlightAware
04:50PM 38.4860 -89.3520 293° West 419 482 32,000  Level FlightAware
04:50PM 38.5140 -89.4340 294° West 419 482 32,000  Level FlightAware
04:51PM 38.5420 -89.5170 293° West 417 480 32,000  Level FlightAware
04:52PM 38.5920 -89.6660 293° West 416 479 32,000  Level FlightAware
04:53PM 38.6330 -89.7890 293° West 416 479 32,000  Level FlightAware
04:54PM 38.6630 -89.8800 293° West 417 480 32,000  Level FlightAware
04:54PM 38.6970 -89.9840 293° West 418 481 32,000  Level FlightAware
04:55PM 38.7230 -90.0620 293° West 418 481 32,000  Level FlightAware
04:56PM 38.7660 -90.1910 293° West 419 482 32,000  Level FlightAware
04:59PM 38.8740 -90.5850 290° West 429 494 32,000 180 Level FlightAware
04:59PM 38.8830 -90.6630 278° West 420 483 32,700 300 Climbing FlightAware
05:04PM 38.9720 -91.4290 279° West 411 473 34,000 180 Climbing FlightAware
05:05PM 38.9850 -91.5470 278° West 410 472 34,000 300 Level FlightAware
05:10PM 39.0630 -92.2780 278° West 417 480 36,000 300 Climbing FlightAware
05:11PM 39.0770 -92.4040 278° West 423 487 36,000  Level FlightAware
05:12PM 39.0880 -92.5190 277° West 424 488 36,000  Level FlightAware
05:13PM 39.1040 -92.6730 278° West 420 483 36,000 -60 Level FlightAware
05:14PM 39.1140 -92.7680 278° West 411 473 35,900  Descending FlightAware
05:14PM 39.1250 -92.8790 277° West 404 465 36,000 60 Climbing FlightAware
05:15PM 39.1360 -92.9900 277° West 402 463 36,000  Level FlightAware
05:16PM 39.1450 -93.0890 277° West 401 461 36,000  Level FlightAware
05:16PM 39.1540 -93.1820 277° West 400 460 36,000  Level FlightAware
05:17PM 39.1640 -93.2870 277° West 399 459 36,000  Level FlightAware
05:18PM 39.1730 -93.3810 277° West 399 459 36,000  Level FlightAware
05:19PM 39.1840 -93.4920 277° West 400 460 36,000  Level FlightAware
05:19PM 39.1920 -93.5840 276° West 400 460 36,000  Level FlightAware
05:20PM 39.2010 -93.6820 277° West 400 460 36,000  Level FlightAware
05:21PM 39.2110 -93.7860 277° West 397 457 36,000  Level FlightAware
05:21PM 39.2190 -93.8800 276° West 395 455 36,000  Level FlightAware
05:22PM 39.2270 -93.9730 276° West 393 452 36,000  Level FlightAware
05:23PM 39.2370 -94.0800 277° West 392 451 36,000  Level FlightAware
05:23PM 39.2450 -94.1740 276° West 393 452 36,000  Level FlightAware
05:24PM 39.2540 -94.2780 276° West 391 450 36,000  Level FlightAware
05:25PM 39.2620 -94.3680 277° West 392 451 36,000  Level FlightAware
05:26PM 39.2700 -94.4630 276° West 393 452 36,000  Level FlightAware
05:26PM 39.2800 -94.5690 277° West 393 452 36,000  Level FlightAware
05:29PM 39.3170 -95.0100 276° West 388 447 36,000  Level FlightAware
05:30PM 39.3250 -95.1010 277° West 389 448 36,000  Level FlightAware
05:31PM 39.3370 -95.2650 275° West 387 445 36,000  Level FlightAware
05:32PM 39.3440 -95.3530 276° West 387 445 36,000  Level FlightAware
05:33PM 39.3510 -95.4490 275° West 387 445 36,000  Level FlightAware
05:33PM 39.3480 -95.4100 96° East 388 447 36,000  Level FlightAware
05:34PM 39.3570 -95.5190 276° West 388 447 36,000  Level FlightAware
05:35PM 39.3650 -95.6250 276° West 389 448 36,000  Level FlightAware
05:35PM 39.3730 -95.7400 275° West 389 448 36,000  Level FlightAware
05:36PM 39.3810 -95.8470 276° West 389 448 36,000  Level FlightAware
05:37PM 39.3880 -95.9380 276° West 389 448 36,000  Level FlightAware
05:38PM 39.3950 -96.0410 275° West 389 448 36,000  Level FlightAware
05:38PM 39.4060 -96.1970 275° West 389 448 36,000  Level FlightAware
05:39PM 39.4130 -96.2830 276° West 387 445 36,000  Level FlightAware
05:40PM 39.4210 -96.3900 276° West 384 442 36,000  Level FlightAware
05:41PM 39.4270 -96.4780 275° West 382 440 36,000  Level FlightAware
05:41PM 39.4330 -96.5540 276° West 381 438 36,000  Level FlightAware
05:42PM 39.4410 -96.6680 275° West 379 436 36,000  Level FlightAware
05:43PM 39.4460 -96.7450 275° West 378 435 36,000  Level FlightAware
05:45PM 39.4660 -97.0360 275° West 377 434 36,000  Level FlightAware
05:46PM 39.4730 -97.1630 274° West 36,000  Level FlightAware
05:47PM 39.4858 -97.3858 274° West 382 440 36,000  Level Kansas City Center
05:48PM 39.4950 -97.5361 275° West 379 436 36,000  Level Kansas City Center
05:49PM 39.5031 -97.6572 275° West 374 430 36,000  Level Kansas City Center
05:50PM 39.5097 -97.7933 274° West 376 433 36,000 -60 Level Kansas City Center
05:51PM 39.5169 -97.9319 274° West 377 434 35,900  Descending Kansas City Center
05:52PM 39.5236 -98.0664 274° West 376 433 36,000 60 Climbing Kansas City Center
05:53PM 39.5269 -98.1478 273° West 380 437 36,000  Level Denver Center
05:54PM 39.5358 -98.3094 274° West 377 434 36,000  Level Denver Center
05:55PM 39.5425 -98.4442 274° West 375 432 36,000  Level Denver Center
05:56PM 39.5483 -98.5811 273° West 378 435 36,000  Level Denver Center
05:57PM 39.5556 -98.7181 274° West 381 438 36,000  Level Denver Center
05:58PM 39.5622 -98.8542 274° West 378 435 36,000  Level Denver Center
05:59PM 39.5686 -98.9892 274° West 377 434 36,000  Level Denver Center
06:00PM 39.5761 -99.1508 273° West 375 432 36,000  Level Denver Center
06:01PM 39.5814 -99.2847 273° West 373 429 36,000  Level Denver Center
06:02PM 39.5875 -99.4192 273° West 372 428 36,000  Level Denver Center
06:03PM 39.5917 -99.5539 272° West 372 428 36,000  Level Denver Center
06:04PM 39.5986 -99.6889 274° West 374 430 36,000  Level Denver Center
06:05PM 39.6022 -99.8225 272° West 372 428 36,000  Level Denver Center
06:06PM 39.6081 -99.9739 273° West 368 423 36,000  Level Denver Center
06:07PM 39.6136 -100.1008 273° West 367 422 36,000  Level Denver Center
06:08PM 39.6167 -100.2072 272° West 369 425 36,000  Level Denver Center
06:09PM 39.6231 -100.3733 273° West 362 417 36,000  Level Denver Center
06:15PM 39.6479 -101.0900 273° West 361 415 36,000  Level FlightAware ADS-B
06:15PM 39.6498 -101.1580 272° West 361 415 36,000  Level FlightAware ADS-B
06:16PM 39.6517 -101.2240 272° West 361 415 36,000  Level FlightAware ADS-B
06:16PM 39.6534 -101.2890 272° West 361 415 36,000  Level FlightAware ADS-B
06:17PM 39.6551 -101.3560 272° West 361 415 36,000  Level FlightAware ADS-B
06:17PM 39.6568 -101.4230 272° West 360 414 36,000  Level FlightAware ADS-B
06:18PM 39.6585 -101.4940 272° West 360 414 36,000  Level FlightAware ADS-B
06:18PM 39.6601 -101.5600 272° West 362 417 36,000 -120 Level FlightAware ADS-B
06:19PM 39.6617 -101.6280 272° West 362 417 35,900  Descending FlightAware ADS-B
06:19PM 39.6632 -101.6940 272° West 360 414 36,000 60 Climbing FlightAware ADS-B
06:20PM 39.6646 -101.7590 272° West 359 413 36,000  Level FlightAware ADS-B
06:20PM 39.6661 -101.8300 272° West 359 413 36,000  Level FlightAware ADS-B
06:21PM 39.6674 -101.8950 272° West 359 413 36,000  Level FlightAware ADS-B
06:21PM 39.6688 -101.9610 272° West 358 412 36,000  Level FlightAware ADS-B
06:22PM 39.6702 -102.0350 271° West 359 413 36,000  Level FlightAware ADS-B
06:22PM 39.6716 -102.1000 272° West 359 413 36,000  Level FlightAware ADS-B
06:23PM 39.6730 -102.1650 272° West 358 412 36,000  Level FlightAware ADS-B
06:23PM 39.6743 -102.2310 271° West 357 411 36,000  Level FlightAware ADS-B
06:24PM 39.6755 -102.2960 271° West 357 411 36,000  Level FlightAware ADS-B
06:24PM 39.6767 -102.3620 271° West 358 412 36,000  Level FlightAware ADS-B
06:25PM 39.6779 -102.4280 271° West 359 413 36,000  Level FlightAware ADS-B
06:25PM 39.6790 -102.4940 271° West 360 414 36,000  Level FlightAware ADS-B
06:26PM 39.6801 -102.5600 271° West 362 417 36,000  Level FlightAware ADS-B
06:26PM 39.6811 -102.6260 271° West 363 418 36,000  Level FlightAware ADS-B
06:27PM 39.6822 -102.6930 271° West 363 418 36,000  Level FlightAware ADS-B
06:27PM 39.6833 -102.7590 271° West 362 417 36,000  Level FlightAware ADS-B
06:28PM 39.6842 -102.8250 271° West 362 417 36,000  Level FlightAware ADS-B
06:28PM 39.6852 -102.8930 271° West 359 413 36,000  Level FlightAware ADS-B
06:29PM 39.6861 -102.9580 271° West 359 413 36,000  Level FlightAware ADS-B
06:29PM 39.6870 -103.0240 271° West 359 413 36,000  Level FlightAware ADS-B
06:30PM 39.6877 -103.0890 271° West 358 412 36,000  Level FlightAware ADS-B
06:30PM 39.6884 -103.1550 271° West 358 412 36,000  Level FlightAware ADS-B
06:31PM 39.6891 -103.2200 271° West 358 412 36,000  Level FlightAware ADS-B
06:31PM 39.6896 -103.2850 271° West 358 412 36,000  Level FlightAware ADS-B
06:32PM 39.6902 -103.3500 271° West 358 412 36,000  Level FlightAware ADS-B
06:32PM 39.6908 -103.4160 271° West 357 411 36,000  Level FlightAware ADS-B
06:33PM 39.6914 -103.4810 271° West 358 412 36,000  Level FlightAware ADS-B
06:33PM 39.6918 -103.5460 270° West 359 413 36,000  Level FlightAware ADS-B
06:34PM 39.6918 -103.6110 270° West 359 413 36,000  Level FlightAware ADS-B
06:35PM 39.6915 -103.6790 270° West 362 417 36,000  Level FlightAware ADS-B
06:35PM 39.6912 -103.7470 270° West 363 418 36,000  Level FlightAware ADS-B
06:36PM 39.6911 -103.8140 270° West 364 419 36,000  Level FlightAware ADS-B
06:36PM 39.6910 -103.8810 270° West 363 418 36,000  Level FlightAware ADS-B
06:37PM 39.6909 -103.9470 270° West 363 418 36,000  Level FlightAware ADS-B
06:37PM 39.6907 -104.0140 270° West 362 417 36,000  Level FlightAware ADS-B
06:38PM 39.6905 -104.0790 270° West 362 417 36,000  Level FlightAware ADS-B
06:38PM 39.6904 -104.1440 270° West 361 415 36,000  Level FlightAware ADS-B
06:39PM 39.6903 -104.2100 270° West 361 415 36,000  Level FlightAware ADS-B
06:39PM 39.6901 -104.2780 270° West 362 417 36,000  Level FlightAware ADS-B
06:40PM 39.6899 -104.3350 270° West 361 415 36,000  Level FlightAware ADS-B
06:40PM 39.6897 -104.4010 270° West 360 414 36,000  Level FlightAware ADS-B
06:41PM 39.6895 -104.4680 270° West 359 413 36,000  Level FlightAware ADS-B
06:41PM 39.6896 -104.5330 270° West 359 413 36,000  Level FlightAware ADS-B
06:42PM 39.6895 -104.5980 270° West 358 412 36,000  Level FlightAware ADS-B
06:42PM 39.6890 -104.6670 269° West 358 412 36,000  Level FlightAware ADS-B
06:43PM 39.6878 -104.7320 269° West 360 414 36,000  Level FlightAware ADS-B
06:43PM 39.6866 -104.8000 269° West 358 412 36,000  Level FlightAware ADS-B
06:44PM 39.6855 -104.8660 269° West 357 411 36,000  Level FlightAware ADS-B
06:44PM 39.6843 -104.9300 269° West 356 410 36,000  Level FlightAware ADS-B
06:45PM 39.6831 -104.9990 269° West 356 410 36,000 -120 Level FlightAware ADS-B
06:45PM 39.6819 -105.0670 269° West 356 410 35,900  Descending FlightAware ADS-B
06:46PM 39.6810 -105.1310 269° West 352 405 36,000 120 Climbing FlightAware
06:46PM 39.6804 -105.1460 267° West 352 405 36,000  Level FlightAware ADS-B
06:46PM 39.6791 -105.2100 269° West 352 405 36,000  Level FlightAware ADS-B
06:47PM 39.6777 -105.2760 268° West 352 405 36,000  Level FlightAware ADS-B
06:47PM 39.6760 -105.3570 268° West 354 407 36,000  Level FlightAware ADS-B
06:48PM 39.6746 -105.4210 268° West 354 407 36,000  Level FlightAware ADS-B
06:48PM 39.6732 -105.4860 268° West 354 407 36,000  Level FlightAware ADS-B
06:49PM 39.6716 -105.5550 268° West 354 407 36,000  Level FlightAware ADS-B
06:50PM 39.6700 -105.6200 268° West 355 409 36,000  Level FlightAware ADS-B
06:50PM 39.6684 -105.6850 268° West 352 405 36,000  Level FlightAware ADS-B
06:51PM 39.6668 -105.7490 268° West 353 406 36,000  Level FlightAware ADS-B
06:51PM 39.6651 -105.8130 268° West 354 407 36,000  Level FlightAware ADS-B
06:52PM 39.6634 -105.8780 268° West 353 406 36,000  Level FlightAware ADS-B
06:52PM 39.6617 -105.9420 268° West 352 405 36,000  Level FlightAware ADS-B
06:53PM 39.6599 -106.0060 268° West 354 407 36,000  Level FlightAware ADS-B
06:53PM 39.6581 -106.0700 268° West 356 410 36,000  Level FlightAware ADS-B
06:54PM 39.6563 -106.1360 268° West 359 413 36,000 -120 Level FlightAware ADS-B
06:54PM 39.6545 -106.2010 268° West 359 413 35,900  Descending FlightAware ADS-B
06:55PM 39.6525 -106.2660 268° West 358 412 36,000 60 Climbing FlightAware ADS-B
06:55PM 39.6506 -106.3310 268° West 358 412 36,000  Level FlightAware ADS-B
06:56PM 39.6485 -106.3990 268° West 359 413 36,000  Level FlightAware ADS-B
06:56PM 39.6466 -106.4640 268° West 359 413 36,000  Level FlightAware ADS-B
06:57PM 39.6450 -106.5290 268° West 360 414 36,000  Level FlightAware ADS-B
06:57PM 39.6432 -106.5940 268° West 359 413 36,000  Level FlightAware ADS-B
06:58PM 39.6412 -106.6610 268° West 359 413 36,000  Level FlightAware ADS-B
06:58PM 39.6393 -106.7270 268° West 361 415 36,000  Level FlightAware ADS-B
06:59PM 39.6373 -106.7920 268° West 362 417 36,000  Level FlightAware ADS-B
06:59PM 39.6356 -106.8460 268° West 361 415 36,000  Level FlightAware ADS-B
07:00PM 39.6334 -106.9120 268° West 361 415 36,000  Level FlightAware ADS-B
07:00PM 39.6307 -106.9900 267° West 360 414 36,000  Level FlightAware ADS-B
07:01PM 39.6283 -107.0580 267° West 362 417 36,000  Level FlightAware ADS-B
07:01PM 39.6259 -107.1250 267° West 362 417 36,000  Level FlightAware ADS-B
07:02PM 39.6235 -107.1910 267° West 360 414 36,000  Level FlightAware ADS-B
07:02PM 39.6209 -107.2570 267° West 360 414 36,000  Level FlightAware ADS-B
07:03PM 39.6158 -107.3653 267° West 361 415 36,000  Level Denver Center
07:04PM 39.6111 -107.4886 267° West 359 413 36,000  Level Denver Center
07:05PM 39.6053 -107.6303 267° West 354 407 36,000  Level Denver Center
07:06PM 39.6006 -107.7525 267° West 353 406 36,000  Level Denver Center
07:07PM 39.5944 -107.8944 267° West 354 407 36,000  Level Denver Center
07:08PM 39.5883 -108.0158 266° West 352 405 36,000  Level Denver Center
07:09PM 39.5828 -108.1372 267° West 354 407 36,000  Level Denver Center
07:10PM 39.5764 -108.2822 267° West 361 415 36,000  Level Denver Center
07:11PM 39.5711 -108.3844 266° West 357 411 36,000 -60 Level Denver Center
07:12PM 39.5633 -108.5472 267° West 354 407 35,900  Descending Denver Center
07:13PM 39.5575 -108.6714 267° West 355 409 36,000  Climbing Denver Center
07:14PM 39.5500 -108.7986 266° West 361 415 36,000  Level Denver Center
07:15PM 39.5439 -108.9258 266° West 365 420 36,000  Level Denver Center
07:16PM 39.5364 -109.0725 266° West 365 420 36,000  Level Denver Center
07:17PM 39.5297 -109.1994 266° West 368 423 36,000  Level Denver Center
07:19PM 39.5219 -109.3467 266° West 366 421 36,000  Level Denver Center
07:20PM 39.5147 -109.4736 266° West 369 425 36,000  Level Denver Center
07:20PM 39.5078 -109.5994 266° West 365 420 36,000  Level Salt Lake Center
07:21PM 39.5008 -109.7256 266° West 367 422 36,000  Level Salt Lake Center
07:23PM 39.4919 -109.8714 266° West 365 420 36,000  Level Denver Center
07:24PM 39.4836 -110.0189 266° West 368 423 36,000  Level Denver Center
07:25PM 39.4681 -110.1467 261° West 373 429 36,000 -60 Level Salt Lake Center
07:26PM 39.4478 -110.2767 259° West 384 442 35,900  Descending Salt Lake Center
07:28PM 39.4025 -110.5525 258° West 381 438 36,000  Climbing Denver Center
07:29PM 39.3856 -110.6583 258° West 378 435 36,000  Level Denver Center
07:30PM 39.3611 -110.8058 258° West 376 433 36,000  Level Denver Center
07:31PM 39.3378 -110.9558 259° West 381 438 36,000  Level Salt Lake Center
07:32PM 39.3133 -111.1089 258° West 388 447 36,000  Level Salt Lake Center
07:33PM 39.2917 -111.2411 258° West 393 452 36,000  Level Salt Lake Center
07:34PM 39.2694 -111.3761 258° West 392 451 36,000  Level Salt Lake Center
07:35PM 39.2464 -111.5106 258° West 387 445 36,000  Level Salt Lake Center
07:36PM 39.2236 -111.6447 258° West 377 434 36,000  Level Salt Lake Center
07:37PM 39.2011 -111.7753 258° West 374 430 36,000  Level Salt Lake Center
07:38PM 39.1742 -111.9322 258° West 375 432 36,000  Level Salt Lake Center
07:39PM 39.1514 -112.0628 257° West 376 433 36,000  Level Salt Lake Center
07:40PM 39.1278 -112.1947 257° West 378 435 36,000  Level Salt Lake Center
07:41PM 39.1039 -112.3258 257° West 379 436 36,000  Level Salt Lake Center
07:42PM 39.0814 -112.4561 257° West 375 432 36,000  Level Salt Lake Center
07:43PM 39.0575 -112.5864 257° West 375 432 36,000  Level Salt Lake Center
07:44PM 39.0344 -112.7197 257° West 381 438 36,000  Level Salt Lake Center
07:45PM 39.0058 -112.8806 257° West 384 442 36,000  Level Salt Lake Center
07:46PM 38.9819 -113.0125 257° West 383 441 36,000  Level Salt Lake Center
07:47PM 38.9572 -113.1419 256° West 378 435 36,000  Level Salt Lake Center
07:48PM 38.9333 -113.2769 257° West 384 442 36,000  Level Salt Lake Center
07:49PM 38.9078 -113.4114 256° West 388 447 36,000  Level Salt Lake Center
07:50PM 38.8828 -113.5433 256° West 384 442 36,000 -60 Level Salt Lake Center
07:51PM 38.8586 -113.6758 257° West 384 442 35,900  Descending Salt Lake Center
07:52PM 38.8278 -113.8361 256° West 386 444 36,000  Climbing Salt Lake Center
07:53PM 38.8025 -113.9700 256° West 388 447 35,900  Descending Salt Lake Center
07:54PM 38.7767 -114.1025 256° West 385 443 36,000  Climbing Salt Lake Center
07:55PM 38.7508 -114.2356 256° West 387 445 36,000  Level Salt Lake Center
07:56PM 38.7253 -114.3694 256° West 388 447 36,000  Level Salt Lake Center
07:57PM 38.6997 -114.5019 256° West 387 445 36,000 -60 Level Salt Lake Center
07:58PM 38.6733 -114.6367 256° West 392 451 35,900 -60 Descending Salt Lake Center
08:00PM 38.6406 -114.7975 255° West 392 451 35,900  Level Salt Lake Center
08:01PM 38.6131 -114.9336 256° West 396 456 36,000  Climbing Salt Lake Center
08:02PM 38.5844 -115.0719 255° West 402 463 36,000 -60 Level Salt Lake Center
08:03PM 38.5569 -115.2069 255° West 396 456 35,900  Descending Salt Lake Center
08:04PM 38.5258 -115.3592 255° West 397 457 36,000  Climbing Salt Lake Center
08:05PM 38.5017 -115.4775 255° West 403 464 36,000  Level Salt Lake Center
08:06PM 38.4672 -115.6447 255° West 406 467 36,000  Level Salt Lake Center
08:07PM 38.4386 -115.7833 255° West 405 466 36,000  Level Salt Lake Center
08:08PM 38.4086 -115.9217 255° West 405 466 36,000  Level Salt Lake Center
08:09PM 38.3783 -116.0594 254° West 403 464 36,000  Level Salt Lake Center
08:10PM 38.3489 -116.1986 255° West 405 466 36,000  Level Salt Lake Center
08:11PM 38.3197 -116.3378 255° West 407 468 36,000  Level Salt Lake Center
08:12PM 38.2886 -116.4786 254° West 412 474 36,000  Level Oakland Center
08:13PM 38.2606 -116.6183 256° West 408 470 36,000  Level Oakland Center
08:14PM 38.2339 -116.7603 257° West 413 475 36,000  Level Oakland Center
08:15PM 38.2208 -116.9331 265° West 411 473 36,000  Level Salt Lake Center
08:16PM 38.2097 -117.0792 265° West 415 478 36,000  Level Salt Lake Center
08:17PM 38.1997 -117.2144 265° West 412 474 36,000  Level Oakland Center
08:18PM 38.1867 -117.3617 264° West 416 479 36,000  Level Oakland Center
08:19PM 38.1750 -117.5072 264° West 421 484 36,000  Level Oakland Center
08:20PM 38.1628 -117.6508 264° West 412 474 36,000  Level Oakland Center
08:21PM 38.1492 -117.7969 263° West 414 476 36,000  Level Oakland Center
08:22PM 38.1367 -117.9439 264° West 417 480 36,000  Level Oakland Center
08:27PM 38.0640 -118.7430 264° West 420 483 36,000  Level FlightAware
08:28PM 38.0560 -118.8270 263° West 420 483 36,000  Level FlightAware
08:29PM 38.0480 -118.9100 263° West 420 483 36,000  Level FlightAware
08:29PM 38.0340 -119.0590 263° West 423 487 36,000  Level FlightAware
08:30PM 38.0200 -119.2030 263° West 423 487 36,000  Level FlightAware
08:31PM 38.0100 -119.3040 263° West 425 489 36,000  Level FlightAware
08:32PM 38.0000 -119.3970 262° West 427 491 36,000 -300 Level FlightAware
08:32PM 37.9880 -119.5140 263° West 433 498 35,600 -780 Descending FlightAware
08:33PM 37.9770 -119.6140 262° West 434 499 34,900 -1,020 Descending FlightAware
08:34PM 37.9660 -119.7260 263° West 427 491 34,200 -1,020 Descending FlightAware
08:34PM 37.9550 -119.8290 262° West 422 486 33,500 -1,020 Descending FlightAware
08:35PM 37.9440 -119.9340 262° West 418 481 32,800 -960 Descending FlightAware
08:36PM 37.9390 -120.0050 265° West 413 475 32,300 -1,020 Descending FlightAware
08:37PM 37.9440 -120.1450 273° West 437 503 31,400 -1,020 Descending FlightAware
08:37PM 37.9500 -120.2720 273° West 438 504 30,600 -960 Descending FlightAware
08:38PM 37.9560 -120.3840 274° West 433 498 29,900 -2,220 Descending FlightAware
08:40PM 37.9340 -120.6000 263° West 450 518 25,800 -3,060 Descending FlightAware
08:40PM 37.9170 -120.7020 258° West 446 513 23,600 -3,480 Descending FlightAware
08:41PM 37.8950 -120.8230 257° West 441 507 20,900 -3,180 Descending FlightAware
08:42PM 37.8780 -120.9220 258° West 426 490 19,100 -2,580 Descending FlightAware
08:42PM 37.8600 -121.0240 257° West 394 453 17,300 -2,760 Descending FlightAware
08:43PM 37.8430 -121.1140 257° West 380 437 15,200 -2,340 Descending FlightAware
08:44PM 37.8260 -121.1900 254° West 381 438 14,200 -1,680 Descending FlightAware
08:45PM 37.7900 -121.2940 246° West 380 437 12,900 -1,800 Descending FlightAware
08:45PM 37.7610 -121.3750 246° West 376 433 11,700 -1,680 Descending FlightAware
08:46PM 37.7300 -121.4620 246° West 353 406 10,600 -1,080 Descending FlightAware
08:47PM 37.7040 -121.5350 246° West 318 366 10,200 -480 Descending FlightAware
08:47PM 37.6820 -121.5970 246° West 283 326 10,000 -1,080 Descending FlightAware
08:48PM 37.6660 -121.6420 246° West 282 325 9,000 -2,040 Descending FlightAware
08:48PM 37.6490 -121.6890 245° Southwest 291 335 8,000 -1,800 Descending FlightAware
08:49PM 37.6360 -121.7290 248° West 286 329 7,400 -1,080 Descending FlightAware
08:49PM 37.6230 -121.7660 246° West 275 316 7,100 -360 Descending FlightAware
08:50PM 37.6080 -121.8080 246° West 261 300 7,100 -300 Level FlightAware
08:50PM 37.6020 -121.8270 248° West 257 296 6,900 -1,200 Descending FlightAware
08:50PM 37.5870 -121.8700 246° West 245 282 6,200 -1,320 Descending FlightAware
08:51PM 37.5760 -121.9020 247° West 233 268 5,700 -1,560 Descending FlightAware
08:51PM 37.5650 -121.9350 247° West 226 260 4,800 -1,620 Descending FlightAware
08:52PM 37.5540 -121.9760 251° West 223 257 4,100 -1,140 Descending FlightAware
08:52PM 37.5620 -122.0050 289° West 212 244 3,800 -780 Descending FlightAware
08:52PM 37.5690 -122.0160 309° West 207 238 3,600 -840 Descending FlightAware
08:53PM 37.5890 -122.0460 310° West 191 220 3,200 -780 Descending FlightAware
08:53PM 37.6030 -122.0660 311° West 189 217 2,900 -900 Descending FlightAware
08:54PM 37.6190 -122.0910 309° West 185 213 2,400 -900 Descending FlightAware
08:54PM 37.6330 -122.1120 310° West 168 193 2,100 -720 Descending FlightAware
08:55PM 37.6430 -122.1270 310° West 156 180 1,800 -780 Descending FlightAware
08:55PM 37.6570 -122.1480 310° West 132 152 1,400 -780 Descending FlightAware
08:55PM 37.6600 -122.1520 313° West 126 145 1,300 -180 Descending FlightAware
08:56PM 37.6690 -122.1670 307° West 126 145 1,300 -660 Level FlightAware
08:57PM 37.6850 -122.1903 307° West 132 152 500 -420 Descending Oakland Center
08:59PM 37.7167 -122.2333 313° West 120 138 200 -180 Descending Northern Cal TRACON